Time;durP1;ratioP1;P1;durP2;ratioP2;P2;SDS_P1;SDS_P2;PMS_P1;PMS_P2;Temp;Humidity;BMP_temperature;BMP_pressure;BME280_temperature;BME280_humidity;BME280_pressure;Samples;Min_cycle;Max_cycle;Signal;HPM_P1;HPM_P2
2023/04/23 00:00:48;;;;;;;54.97;28.45;;;;;;;8.15;100.00;100712.22;4947593;28;20036;-96
2023/04/23 00:03:18;;;;;;;55.15;27.33;;;;;;;8.13;100.00;100715.59;4954228;28;20110;-96
2023/04/23 00:05:44;;;;;;;51.67;27.02;;;;;;;8.08;100.00;100705.06;4951399;28;20030;-96
2023/04/23 00:08:10;;;;;;;53.78;26.80;;;;;;;8.07;100.00;100703.31;4952113;28;20051;-96
2023/04/23 00:10:36;;;;;;;50.63;27.00;;;;;;;8.04;100.00;100698.03;4966616;28;20038;-96
2023/04/23 00:13:02;;;;;;;52.20;26.95;;;;;;;8.04;100.00;100700.63;4949440;28;20023;-96
2023/04/23 00:15:28;;;;;;;50.65;27.65;;;;;;;8.01;100.00;100697.94;4953251;28;20024;-96
2023/04/23 00:17:53;;;;;;;54.42;27.88;;;;;;;8.00;100.00;100688.38;4950415;28;20162;-96
2023/04/23 00:20:19;;;;;;;52.58;27.75;;;;;;;8.03;100.00;100695.38;4954318;28;20174;-96
2023/04/23 00:22:44;;;;;;;52.47;28.23;;;;;;;8.00;100.00;100697.03;4950661;28;20038;-96
2023/04/23 00:25:10;;;;;;;52.45;26.63;;;;;;;7.96;100.00;100691.69;4960455;28;20047;-96
2023/04/23 00:27:36;;;;;;;47.47;25.17;;;;;;;7.95;100.00;100690.84;4971110;28;20085;-96
2023/04/23 00:30:03;;;;;;;48.03;25.50;;;;;;;7.95;100.00;100687.34;4970291;28;20397;-96
2023/04/23 00:32:29;;;;;;;52.35;28.13;;;;;;;7.96;100.00;100686.50;4972803;28;20027;-96
2023/04/23 00:34:55;;;;;;;53.08;26.73;;;;;;;7.94;100.00;100693.38;4978570;28;20093;-96
2023/04/23 00:37:21;;;;;;;55.60;27.60;;;;;;;7.90;100.00;100694.09;4967822;28;20027;-96
2023/04/23 00:39:46;;;;;;;57.22;27.77;;;;;;;7.89;100.00;100688.03;4970751;28;20037;-96
2023/04/23 00:42:12;;;;;;;58.42;27.85;;;;;;;7.88;100.00;100681.09;4971385;28;20094;-96
2023/04/23 00:44:38;;;;;;;56.80;28.33;;;;;;;7.91;100.00;100678.59;4973619;28;20031;-96
2023/04/23 00:47:05;;;;;;;57.28;27.70;;;;;;;7.90;100.00;100679.41;4969646;28;20650;-96
2023/04/23 00:49:30;;;;;;;58.58;28.30;;;;;;;7.89;100.00;100666.41;4966535;28;20118;-96
2023/04/23 00:51:56;;;;;;;56.15;27.95;;;;;;;7.87;100.00;100673.25;4970774;28;20054;-96
2023/04/23 00:54:21;;;;;;;56.30;26.88;;;;;;;7.84;100.00;100668.84;4967552;28;20026;-96
2023/04/23 00:56:48;;;;;;;55.78;28.25;;;;;;;7.82;100.00;100660.13;4969659;28;20362;-96
2023/04/23 00:59:14;;;;;;;57.17;28.30;;;;;;;7.83;100.00;100655.00;4972555;28;20056;-96
2023/04/23 01:01:41;;;;;;;52.53;26.05;;;;;;;7.85;100.00;100662.84;4972619;28;20034;-96
2023/04/23 01:04:08;;;;;;;59.80;28.52;;;;;;;7.84;100.00;100658.47;4973884;28;20114;-96
2023/04/23 01:06:34;;;;;;;56.10;27.75;;;;;;;7.82;100.00;100654.94;4970233;28;20086;-96
2023/04/23 01:09:00;;;;;;;55.53;28.00;;;;;;;7.83;100.00;100655.00;4969542;28;20023;-96
2023/04/23 01:11:28;;;;;;;54.65;27.20;;;;;;;7.81;100.00;100654.06;4971138;28;20051;-96
2023/04/23 01:13:55;;;;;;;58.47;27.98;;;;;;;7.82;100.00;100653.25;4973695;28;20578;-96
2023/04/23 01:16:20;;;;;;;56.58;27.40;;;;;;;7.78;100.00;100638.41;4974197;28;20029;-96
2023/04/23 01:18:46;;;;;;;58.47;27.65;;;;;;;7.78;100.00;100647.91;4967912;28;20047;-96
2023/04/23 01:21:13;;;;;;;54.53;27.38;;;;;;;7.76;100.00;100644.38;4968485;28;20590;-96
2023/04/23 01:23:39;;;;;;;56.67;27.48;;;;;;;7.74;100.00;100646.06;4972141;28;20027;-96
2023/04/23 01:26:06;;;;;;;51.60;26.83;;;;;;;7.73;100.00;100641.69;4975478;28;20030;-96
2023/04/23 01:28:32;;;;;;;52.70;26.80;;;;;;;7.71;100.00;100636.44;4972301;28;20043;-96
2023/04/23 01:30:58;;;;;;;53.75;27.25;;;;;;;7.72;100.00;100642.50;4973013;28;20035;-96
2023/04/23 01:33:25;;;;;;;56.03;27.63;;;;;;;7.69;100.00;100643.31;4986845;28;20032;-96
2023/04/23 01:35:50;;;;;;;54.22;27.05;;;;;;;7.68;100.00;100636.34;4970988;28;20030;-96
2023/04/23 01:38:21;;;;;;;49.20;25.88;;;;;;;7.67;100.00;100639.78;4974176;28;20065;-96
2023/04/23 01:40:47;;;;;;;52.90;26.67;;;;;;;7.67;100.00;100637.19;4977386;28;20022;-96
2023/04/23 01:43:12;;;;;;;50.13;25.77;;;;;;;7.65;100.00;100628.50;4983234;28;20445;-96
2023/04/23 01:45:38;;;;;;;52.13;25.27;;;;;;;7.68;100.00;100636.34;4975443;28;20076;-96
2023/04/23 01:48:03;;;;;;;51.70;26.73;;;;;;;7.68;100.00;100636.34;4975334;28;20180;-96
2023/04/23 01:50:29;;;;;;;52.17;27.20;;;;;;;7.71;100.00;100641.63;4973378;28;20448;-96
2023/04/23 01:52:55;;;;;;;51.72;26.60;;;;;;;7.71;100.00;100633.84;4973710;28;20468;-96
2023/04/23 01:55:20;;;;;;;49.17;26.38;;;;;;;7.75;100.00;100632.22;4973001;28;20018;-96
2023/04/23 01:57:46;;;;;;;50.20;26.90;;;;;;;7.77;100.00;100631.44;4975176;28;20016;-96
2023/04/23 02:00:14;;;;;;;51.28;26.58;;;;;;;7.80;100.00;100636.72;4975866;28;20034;-96
2023/04/23 02:02:41;;;;;;;49.17;25.73;;;;;;;7.80;100.00;100641.91;4968093;28;20031;-96
2023/04/23 02:05:17;;;;;;;52.60;26.38;;;;;;;7.80;100.00;100636.72;4968709;28;20034;-96
2023/04/23 02:07:43;;;;;;;50.78;27.02;;;;;;;7.81;100.00;100637.63;4971593;28;20030;-96
2023/04/23 02:10:11;;;;;;;51.50;27.25;;;;;;;7.78;100.00;100634.94;4975077;28;20070;-96
2023/04/23 02:12:38;;;;;;;48.60;26.50;;;;;;;7.73;100.00;100634.78;4979407;28;20022;-96
2023/04/23 02:15:06;;;;;;;48.22;27.55;;;;;;;7.68;100.00;100619.94;4980012;28;20045;-96
2023/04/23 02:17:31;;;;;;;46.17;25.55;;;;;;;7.64;100.00;100627.59;4987677;28;20035;-96
2023/04/23 02:19:57;;;;;;;46.80;25.90;;;;;;;7.64;100.00;100624.13;4984748;28;20034;-96
2023/04/23 02:22:25;;;;;;;45.33;24.30;;;;;;;7.65;100.00;100621.56;4978413;28;20022;-96
2023/04/23 02:31:23;;;;;;;42.55;22.88;;;;;;;7.70;100.00;100623.44;4967516;28;20138;-96
2023/04/23 02:33:48;;;;;;;47.22;23.70;;;;;;;7.71;100.00;100620.91;4970475;28;20031;-96
2023/04/23 02:36:15;;;;;;;44.10;23.55;;;;;;;7.77;100.00;100621.06;4981614;28;20023;-96
2023/04/23 02:38:43;;;;;;;40.90;22.73;;;;;;;7.83;100.00;100625.56;4988948;28;20107;-96
2023/04/23 02:41:09;;;;;;;38.72;22.13;;;;;;;7.90;100.00;100621.47;4973895;28;20090;-96
2023/04/23 02:43:35;;;;;;;42.08;22.73;;;;;;;7.92;100.00;100612.00;4975974;28;20078;-96
2023/04/23 02:46:07;;;;;;;37.55;21.80;;;;;;;7.95;100.00;100617.28;4991539;28;20082;-96
2023/04/23 02:48:40;;;;;;;39.22;21.15;;;;;;;7.98;100.00;100614.78;4972243;28;20089;-96
2023/04/23 02:53:33;;;;;;;39.47;21.35;;;;;;;7.97;100.00;100616.50;6064142;23;20054;-95
2023/04/23 02:56:01;;;;;;;37.67;20.75;;;;;;;7.98;100.00;100618.28;4952587;28;20019;-96
2023/04/23 02:58:28;;;;;;;36.83;21.00;;;;;;;8.00;100.00;100618.31;4980528;28;20077;-96
2023/04/23 03:00:53;;;;;;;39.15;21.17;;;;;;;8.03;100.00;100609.75;4969439;28;20105;-96
2023/04/23 03:03:19;;;;;;;38.83;21.23;;;;;;;8.02;100.00;100614.03;4973443;28;20125;-96
2023/04/23 03:05:48;;;;;;;37.67;20.85;;;;;;;8.04;100.00;100609.81;4968960;28;20034;-96
2023/04/23 03:08:13;;;;;;;37.05;21.45;;;;;;;8.06;100.00;100602.94;4973556;28;20109;-96
2023/04/23 03:10:38;;;;;;;37.88;20.77;;;;;;;8.10;100.00;100609.09;4970917;28;20054;-96
2023/04/23 03:13:04;;;;;;;39.00;21.42;;;;;;;8.13;100.00;100610.06;4964918;28;20507;-96
2023/04/23 03:15:29;;;;;;;38.63;21.23;;;;;;;8.13;100.00;100607.47;4961256;28;20093;-95
2023/04/23 03:17:55;;;;;;;39.15;20.65;;;;;;;8.16;100.00;100602.38;4963193;28;20038;-96
2023/04/23 03:20:21;;;;;;;38.38;21.08;;;;;;;8.15;100.00;100592.84;4963517;28;20585;-96
2023/04/23 03:22:49;;;;;;;34.30;20.48;;;;;;;8.17;100.00;100598.06;4964285;28;20031;-96
2023/04/23 03:25:15;;;;;;;39.70;21.38;;;;;;;8.18;100.00;100587.75;4969627;28;20031;-96
2023/04/23 03:27:51;;;;;;;38.17;21.08;;;;;;;8.17;100.00;100598.94;4946600;28;20045;-96
2023/04/23 03:30:25;;;;;;;35.83;21.30;;;;;;;8.19;100.00;100594.66;4966694;28;20046;-96
2023/04/23 03:32:51;;;;;;;42.30;21.30;;;;;;;8.21;100.00;100596.44;4964472;28;20483;-96
2023/04/23 03:35:17;;;;;;;40.72;21.35;;;;;;;8.23;100.00;100595.66;4976781;28;20100;-96
2023/04/23 03:37:43;;;;;;;39.53;21.70;;;;;;;8.24;100.00;100591.31;4980422;28;20018;-96
2023/04/23 03:40:14;;;;;;;35.88;20.63;;;;;;;8.27;100.00;100588.81;4974909;28;20094;-96
2023/04/23 03:42:43;;;;;;;36.45;20.63;;;;;;;8.28;100.00;100594.03;4977126;28;20073;-96
2023/04/23 03:45:12;;;;;;;38.40;20.73;;;;;;;8.29;100.00;100588.03;4989114;28;20054;-96
2023/04/23 03:47:45;;;;;;;37.38;20.95;;;;;;;8.34;100.00;100593.34;4967730;28;20476;-96
2023/04/23 03:50:16;;;;;;;39.95;21.35;;;;;;;8.34;100.00;100594.25;4972492;28;20057;-96
2023/04/23 03:52:41;;;;;;;35.50;20.10;;;;;;;8.38;100.00;100595.19;4990183;28;20023;-96
2023/04/23 03:55:07;;;;;;;39.22;21.48;;;;;;;8.39;100.00;100596.97;4973438;28;20058;-96
2023/04/23 03:57:35;;;;;;;35.58;20.55;;;;;;;8.40;100.00;100592.66;4964168;28;20052;-96
2023/04/23 04:00:02;;;;;;;36.58;21.17;;;;;;;8.43;100.00;100593.63;4964705;28;20395;-96
2023/04/23 04:02:28;;;;;;;36.38;21.55;;;;;;;8.44;100.00;100585.00;4954757;28;20042;-96
2023/04/23 04:04:55;;;;;;;34.00;20.52;;;;;;;8.45;100.00;100594.56;4976792;28;20027;-96
2023/04/23 04:07:21;;;;;;;39.20;20.70;;;;;;;8.49;100.00;100593.81;4950609;28;20484;-95
2023/04/23 04:09:49;;;;;;;35.63;20.25;;;;;;;8.51;100.00;100596.47;4968360;28;20037;-95
2023/04/23 04:12:17;;;;;;;37.25;20.80;;;;;;;8.49;100.00;100598.16;4954954;28;20122;-95
2023/04/23 04:14:46;;;;;;;35.35;20.95;;;;;;;8.49;100.00;100600.75;4949421;28;20094;-95
2023/04/23 04:17:14;;;;;;;39.20;21.25;;;;;;;8.50;100.00;100595.59;4941082;28;20499;-94
2023/04/23 04:19:40;;;;;;;33.72;19.60;;;;;;;8.50;100.00;100595.59;4948457;28;20106;-94
2023/04/23 04:22:06;;;;;;;35.65;20.05;;;;;;;8.49;100.00;100609.41;4951147;28;20122;-95
2023/04/23 04:24:31;;;;;;;33.70;20.00;;;;;;;8.48;100.00;100602.44;4965794;28;20065;-96
2023/04/23 04:27:01;;;;;;;35.08;19.75;;;;;;;8.48;100.00;100602.44;4962863;28;20546;-94
2023/04/23 04:29:26;;;;;;;;;;;;;;;8.56;100.00;100609.56;4993841;28;20100;-95
2023/04/23 04:31:53;;;;;;;36.05;19.67;;;;;;;8.51;100.00;100614.63;4961094;28;20327;-94
2023/04/23 04:34:22;;;;;;;35.97;19.60;;;;;;;8.52;100.00;100613.81;4945625;28;20109;-95
2023/04/23 04:36:52;;;;;;;35.93;19.60;;;;;;;8.52;100.00;100608.63;4949390;28;20027;-96
2023/04/23 04:39:21;;;;;;;35.90;19.98;;;;;;;8.50;100.00;100600.78;4988738;28;20038;-96
2023/04/23 04:41:53;;;;;;;36.30;20.40;;;;;;;8.49;100.00;100604.22;4992660;28;20022;-96
2023/04/23 04:44:21;;;;;;;34.13;18.95;;;;;;;8.47;100.00;100599.81;4983928;28;20352;-96
2023/04/23 04:46:47;;;;;;;36.67;19.13;;;;;;;8.49;100.00;100605.94;4972844;28;20022;-96
2023/04/23 04:49:13;;;;;;;32.20;18.90;;;;;;;8.47;100.00;100608.50;4966227;28;20313;-96
2023/04/23 04:51:42;;;;;;;35.30;19.75;;;;;;;8.46;100.00;100606.72;4965595;28;20031;-96
2023/04/23 04:54:11;;;;;;;35.05;19.58;;;;;;;8.46;100.00;100598.94;4978249;28;20054;-96
2023/04/23 04:56:48;;;;;;;33.92;18.83;;;;;;;8.43;100.00;100598.81;4995554;28;20034;-96
2023/04/23 04:59:19;;;;;;;33.67;18.23;;;;;;;8.43;100.00;100598.81;4988852;28;20038;-96
2023/04/23 05:01:45;;;;;;;36.15;19.58;;;;;;;8.42;100.00;100603.97;4983909;28;20034;-96
2023/04/23 05:04:13;;;;;;;35.10;19.13;;;;;;;8.41;100.00;100610.84;4990695;28;20023;-96
2023/04/23 05:06:39;;;;;;;34.60;19.77;;;;;;;8.38;100.00;100610.78;4981437;28;20037;-96
2023/04/23 05:09:04;;;;;;;31.05;18.98;;;;;;;8.35;100.00;100608.97;4986598;28;20062;-96
2023/04/23 05:11:30;;;;;;;35.15;19.98;;;;;;;8.36;100.00;100610.72;4979091;28;20037;-96
2023/04/23 05:13:56;;;;;;;34.22;19.80;;;;;;;8.36;100.00;100613.34;4996737;23;20046;-68
2023/04/23 05:16:21;;;;;;;34.10;19.95;;;;;;;8.38;100.00;100607.31;4998138;28;20025;-68
2023/04/23 05:18:46;;;;;;;35.13;19.17;;;;;;;8.40;100.00;100605.63;4997644;28;20057;-68
2023/04/23 05:21:13;;;;;;;35.60;19.73;;;;;;;8.41;100.00;100605.66;4997719;28;20546;-68
2023/04/23 05:23:38;;;;;;;34.03;18.73;;;;;;;8.43;100.00;100601.41;4980312;28;20517;-68
2023/04/23 05:26:03;;;;;;;36.63;19.38;;;;;;;8.48;100.00;100615.44;4997272;28;20649;-68
2023/04/23 05:28:30;;;;;;;36.10;19.70;;;;;;;8.53;100.00;100621.66;4997140;28;20663;-69
2023/04/23 05:30:57;;;;;;;34.25;19.77;;;;;;;8.59;100.00;100618.34;4998122;28;20026;-68
2023/04/23 05:33:22;;;;;;;36.58;19.73;;;;;;;8.65;100.00;100609.84;4997838;28;20038;-69
2023/04/23 05:35:47;;;;;;;36.20;20.08;;;;;;;8.70;100.00;100613.44;4978445;28;20030;-68
2023/04/23 05:38:13;;;;;;;36.05;19.85;;;;;;;8.73;100.00;100613.50;4998019;28;20030;-68
2023/04/23 05:40:38;;;;;;;33.97;19.70;;;;;;;8.77;100.00;100606.69;4995559;28;20129;-68
2023/04/23 05:43:04;;;;;;;34.20;19.08;;;;;;;8.81;100.00;100606.81;4997495;28;20050;-68
2023/04/23 05:45:29;;;;;;;33.47;19.05;;;;;;;8.84;100.00;100598.22;4990081;28;20023;-68
2023/04/23 05:47:54;;;;;;;35.45;19.65;;;;;;;8.90;100.00;100605.31;4978534;28;20041;-68
2023/04/23 05:50:20;;;;;;;33.58;18.83;;;;;;;8.94;100.00;100607.16;4979111;28;20027;-68
2023/04/23 05:52:46;;;;;;;33.85;18.77;;;;;;;8.98;100.00;100606.38;4979336;28;20034;-68
2023/04/23 05:55:14;;;;;;;33.75;18.90;;;;;;;9.03;100.00;100594.38;4977975;28;20026;-68
2023/04/23 05:57:39;;;;;;;35.33;19.35;;;;;;;9.08;100.00;100595.41;4979416;28;20034;-68
2023/04/23 06:00:08;;;;;;;34.72;18.77;;;;;;;9.13;100.00;100598.97;4978574;28;20049;-68
2023/04/23 06:02:34;;;;;;;31.45;18.15;;;;;;;9.18;100.00;100601.69;4979350;28;20041;-68
2023/04/23 06:05:00;;;;;;;33.83;19.23;;;;;;;9.23;100.00;100600.97;4981041;28;20035;-66
2023/04/23 06:07:25;;;;;;;32.03;18.60;;;;;;;9.28;100.00;100602.81;4983931;28;20592;-66
2023/04/23 06:09:50;;;;;;;33.55;17.88;;;;;;;9.34;100.00;100602.94;4983526;28;20088;-66
2023/04/23 06:12:17;;;;;;;30.10;17.27;;;;;;;9.38;100.00;100604.78;4983163;28;20109;-66
2023/04/23 06:14:42;;;;;;;32.13;17.92;;;;;;;9.46;100.00;100598.06;4982540;28;20084;-66
2023/04/23 06:17:07;;;;;;;29.52;17.15;;;;;;;9.53;100.00;100596.47;4982669;28;20022;-66
2023/04/23 06:19:32;;;;;;;32.25;17.90;;;;;;;9.60;100.00;100585.38;4982867;28;20030;-65
2023/04/23 06:21:58;;;;;;;29.67;17.38;;;;;;;9.70;100.00;100586.47;4983757;28;20037;-66
2023/04/23 06:24:23;;;;;;;34.15;17.05;;;;;;;9.79;100.00;100581.50;4981887;28;20088;-65
2023/04/23 06:26:49;;;;;;;30.65;17.67;;;;;;;9.90;100.00;100584.31;4981675;28;20037;-65
2023/04/23 06:29:14;;;;;;;30.80;17.15;;;;;;;10.00;100.00;100575.00;4981616;28;20038;-66
2023/04/23 06:31:40;;;;;;;30.65;17.55;;;;;;;10.10;100.00;100571.72;4982801;28;20037;-66
2023/04/23 06:34:06;;;;;;;28.60;16.58;;;;;;;10.21;100.00;100567.63;4982797;28;20066;-66
2023/04/23 06:36:31;;;;;;;30.23;17.42;;;;;;;10.34;100.00;100567.91;4982252;28;20520;-65
2023/04/23 06:38:56;;;;;;;29.00;16.83;;;;;;;10.44;100.00;100569.84;4982998;28;20081;-65
2023/04/23 06:41:21;;;;;;;27.88;16.10;;;;;;;10.54;100.00;100563.97;4980337;28;20034;-66
2023/04/23 06:43:47;;;;;;;37.17;21.98;;;;;;;10.66;100.00;100565.03;4982614;28;20170;-65
2023/04/23 06:46:13;;;;;;;41.67;25.15;;;;;;;10.76;100.00;100560.03;4981644;28;20433;-66
2023/04/23 06:48:38;;;;;;;30.02;17.23;;;;;;;10.90;100.00;100562.88;4982769;28;20033;-66
2023/04/23 06:51:05;;;;;;;30.38;16.25;;;;;;;11.05;100.00;100569.22;4981956;28;20414;-66
2023/04/23 06:53:30;;;;;;;27.13;15.15;;;;;;;11.14;99.27;100562.44;4982957;28;20045;-66
2023/04/23 06:55:56;;;;;;;26.08;14.23;;;;;;;11.27;99.30;100568.72;4981913;28;20057;-66
2023/04/23 06:58:26;;;;;;;25.92;14.80;;;;;;;11.37;99.53;100567.16;4994442;23;20145;-93
2023/04/23 07:00:58;;;;;;;24.27;13.90;;;;;;;11.48;98.03;100562.97;4963378;28;20102;-96
2023/04/23 07:03:28;;;;;;;26.25;13.60;;;;;;;11.58;98.21;100561.38;4987646;28;21085;-96
2023/04/23 07:05:54;;;;;;;24.65;14.30;;;;;;;11.70;97.04;100567.63;4989250;23;20050;-68
2023/04/23 07:08:20;;;;;;;24.48;13.57;;;;;;;11.80;96.74;100564.28;4996551;28;20476;-68
2023/04/23 07:10:45;;;;;;;22.33;12.70;;;;;;;11.90;96.26;100560.94;4996519;28;20017;-68
2023/04/23 07:13:11;;;;;;;20.95;12.95;;;;;;;11.99;94.13;100553.28;4996651;28;20051;-68
2023/04/23 07:15:36;;;;;;;42.88;21.48;;;;;;;12.08;94.67;100549.91;4995563;28;20638;-68
2023/04/23 07:18:02;;;;;;;62.53;32.78;;;;;;;12.15;95.81;100556.97;4979053;28;20477;-68
2023/04/23 07:20:27;;;;;;;22.10;12.15;;;;;;;12.26;94.13;100553.59;4995944;28;20022;-68
2023/04/23 07:22:53;;;;;;;22.80;11.95;;;;;;;12.41;95.05;100555.50;4996263;28;20073;-68
2023/04/23 07:25:20;;;;;;;23.15;12.05;;;;;;;12.56;92.77;100553.06;4996247;28;20026;-68
2023/04/23 07:27:45;;;;;;;21.55;11.20;;;;;;;12.68;92.35;100547.97;4996379;28;20025;-68
2023/04/23 07:30:11;;;;;;;20.08;10.75;;;;;;;12.76;91.85;100542.84;4979420;28;20036;-68
2023/04/23 07:32:36;;;;;;;21.02;10.52;;;;;;;12.83;90.71;100544.63;4996601;28;20034;-68
2023/04/23 07:35:03;;;;;;;19.13;9.68;;;;;;;12.91;90.29;100542.09;4996613;28;20032;-68
2023/04/23 07:37:29;;;;;;;21.77;9.48;;;;;;;13.01;90.28;100551.75;4996382;28;20037;-68
2023/04/23 07:39:54;;;;;;;18.48;9.00;;;;;;;13.08;89.19;100547.47;4994728;28;20038;-68
2023/04/23 07:42:19;;;;;;;22.45;9.82;;;;;;;13.15;90.37;100543.16;4994227;28;20058;-68
2023/04/23 07:44:45;;;;;;;17.27;9.50;;;;;;;13.24;89.04;100532.78;4992501;28;20026;-68
2023/04/23 07:47:10;;;;;;;18.13;8.93;;;;;;;13.31;88.56;100529.34;4993527;28;20414;-68
2023/04/23 07:49:35;;;;;;;16.48;8.10;;;;;;;13.31;86.22;100528.44;5055601;23;20046;-95
2023/04/23 07:52:01;;;;;;;17.70;8.43;;;;;;;13.38;88.55;100536.41;4981544;28;20029;-95
2023/04/23 07:54:26;;;;;;;15.05;8.55;;;;;;;13.45;87.33;100532.06;4994023;28;20514;-96
2023/04/23 07:56:51;;;;;;;15.15;8.02;;;;;;;13.52;86.93;100528.63;4994428;28;20073;-95
2023/04/23 07:59:17;;;;;;;15.77;8.05;;;;;;;13.58;86.58;100533.03;4976086;28;20026;-96
2023/04/23 08:01:42;;;;;;;18.05;8.20;;;;;;;13.62;84.44;100519.09;4974903;28;20022;-95
2023/04/23 08:04:07;;;;;;;18.55;7.60;;;;;;;13.72;84.33;100520.91;4977321;28;20021;-94
2023/04/23 08:06:34;;;;;;;15.45;7.25;;;;;;;13.86;86.59;100518.34;4993731;28;20081;-95
2023/04/23 08:09:00;;;;;;;20.95;7.68;;;;;;;14.00;85.92;100517.53;4976654;28;20025;-96
2023/04/23 08:11:28;;;;;;;14.55;6.68;;;;;;;14.11;84.06;100520.19;4975108;28;20097;-95
2023/04/23 08:13:53;;;;;;;17.70;7.25;;;;;;;14.15;84.41;100511.47;4977427;28;20112;-96
2023/04/23 08:16:19;;;;;;;16.80;7.03;;;;;;;14.22;82.51;100518.47;4975279;28;20026;-92
2023/04/23 08:18:44;;;;;;;15.95;7.38;;;;;;;14.32;84.44;100512.41;4991516;28;20103;-95
2023/04/23 08:21:12;;;;;;;16.02;6.80;;;;;;;14.37;83.25;100515.91;4978131;28;20025;-96
2023/04/23 08:23:38;;;;;;;12.02;6.15;;;;;;;14.38;80.98;100511.53;4980400;28;20034;-96
2023/04/23 08:26:06;;;;;;;13.93;6.30;;;;;;;14.37;81.20;100510.69;4993055;28;20061;-96
2023/04/23 08:28:31;;;;;;;19.50;7.63;;;;;;;14.49;80.76;100503.72;4978312;28;20442;-96
2023/04/23 08:30:57;;;;;;;14.75;6.43;;;;;;;14.57;83.06;100500.25;4977058;28;20021;-96
2023/04/23 08:33:22;;;;;;;15.02;6.13;;;;;;;14.73;83.11;100497.66;4978745;28;20080;-96
2023/04/23 08:35:48;;;;;;;14.48;5.93;;;;;;;14.84;79.35;100498.53;4979167;28;20181;-96
2023/04/23 08:38:13;;;;;;;12.88;4.93;;;;;;;14.91;77.12;100508.16;4978885;28;20029;-96
2023/04/23 08:40:41;;;;;;;12.43;5.03;;;;;;;14.95;77.59;100509.06;4979871;28;20084;-96
2023/04/23 08:43:15;;;;;;;13.20;4.60;;;;;;;15.07;79.13;100506.41;4979248;28;20032;-96
2023/04/23 08:45:45;;;;;;;13.05;4.93;;;;;;;15.21;75.35;100510.78;4978396;28;20026;-96
2023/04/23 08:48:13;;;;;;;15.38;4.85;;;;;;;15.36;75.26;100500.25;4978429;28;20030;-96
2023/04/23 08:50:44;;;;;;;14.40;4.45;;;;;;;15.40;74.53;100496.75;4997855;28;20053;-96
2023/04/23 08:53:10;;;;;;;10.43;5.03;;;;;;;15.51;74.51;100503.72;4982398;28;20029;-96
2023/04/23 08:55:35;;;;;;;12.35;4.22;;;;;;;15.58;73.28;100505.47;4981688;28;20014;-96
2023/04/23 08:58:02;;;;;;;12.35;4.15;;;;;;;15.56;71.95;100501.97;4971652;23;20146;-71
2023/04/23 09:00:28;;;;;;;12.10;4.07;;;;;;;15.48;73.09;100497.63;4938567;29;20038;-72
2023/04/23 09:02:54;;;;;;;10.82;4.30;;;;;;;15.55;74.10;100508.97;4939096;29;20039;-69
2023/04/23 09:05:20;;;;;;;10.88;4.30;;;;;;;15.68;73.51;100507.19;4940091;29;20027;-69
2023/04/23 09:07:45;;;;;;;11.82;4.07;;;;;;;15.77;72.15;100501.91;4939668;28;20495;-69
2023/04/23 09:10:11;;;;;;;14.00;4.40;;;;;;;15.78;73.17;100503.69;4940168;28;20454;-69
2023/04/23 09:12:39;;;;;;;12.10;4.00;;;;;;;15.84;71.51;100494.03;4939585;29;20038;-68
2023/04/23 09:15:11;;;;;;;12.75;3.63;;;;;;;15.86;72.38;100502.78;4939739;29;20023;-69
2023/04/23 09:17:45;;;;;;;10.68;3.63;;;;;;;15.86;71.91;100490.53;4961184;28;20039;-69
2023/04/23 09:20:11;;;;;;;11.10;3.40;;;;;;;15.87;71.72;100504.53;4939231;29;20031;-69
2023/04/23 09:22:48;;;;;;;8.13;3.47;;;;;;;15.84;72.03;100488.78;4939744;29;20038;-69
2023/04/23 09:25:18;;;;;;;11.20;3.40;;;;;;;15.87;71.22;100491.41;4939512;29;20510;-69
2023/04/23 09:27:44;;;;;;;8.85;3.08;;;;;;;16.01;70.50;100481.69;4939626;29;20054;-69
2023/04/23 09:30:10;;;;;;;7.95;3.50;;;;;;;16.10;69.06;100484.28;4939075;29;20119;-69
2023/04/23 09:32:37;;;;;;;11.18;2.92;;;;;;;16.11;68.00;100482.53;4939181;29;20031;-69
2023/04/23 09:35:08;;;;;;;9.95;2.80;;;;;;;16.06;65.84;100489.56;4939474;29;20027;-69
2023/04/23 09:37:34;;;;;;;8.35;2.70;;;;;;;16.15;64.55;100485.13;4939181;29;20483;-69
2023/04/23 09:40:08;;;;;;;12.10;2.65;;;;;;;16.16;64.58;100483.38;4941182;29;20030;-69
2023/04/23 09:42:34;;;;;;;8.25;2.28;;;;;;;16.13;64.72;100468.50;4943110;29;20026;-69
2023/04/23 09:45:05;;;;;;;9.35;2.47;;;;;;;16.21;63.40;100470.22;4943379;29;20098;-69
2023/04/23 09:47:36;;;;;;;9.05;2.30;;;;;;;16.36;65.90;100469.25;4943289;29;20114;-69
2023/04/23 09:50:02;;;;;;;8.23;2.30;;;;;;;16.39;63.91;100471.88;4946640;29;20396;-69
2023/04/23 09:52:30;;;;;;;9.88;2.72;;;;;;;16.40;64.48;100468.34;4940408;29;20023;-69
2023/04/23 09:54:59;;;;;;;7.53;2.53;;;;;;;16.35;63.48;100468.38;4940089;28;20110;-69
2023/04/23 09:57:25;;;;;;;9.00;2.70;;;;;;;16.26;64.48;100458.78;4948428;28;20085;-69
2023/04/23 09:59:50;;;;;;;8.05;2.78;;;;;;;16.23;64.84;100456.16;4942915;28;20031;-69
2023/04/23 10:02:16;;;;;;;7.00;2.78;;;;;;;16.21;63.98;100462.34;4960058;28;20094;-69
2023/04/23 10:04:42;;;;;;;9.07;2.78;;;;;;;16.17;64.34;100459.72;4942745;28;20453;-69
2023/04/23 10:07:07;;;;;;;9.90;3.60;;;;;;;16.15;64.22;100458.00;4959252;28;20058;-69
2023/04/23 10:09:33;;;;;;;7.82;3.53;;;;;;;16.09;64.63;100463.25;4942626;28;20454;-69
2023/04/23 10:12:01;;;;;;;11.38;3.33;;;;;;;15.99;64.16;100458.06;4942109;28;20125;-69
2023/04/23 10:14:27;;;;;;;9.57;3.53;;;;;;;15.89;65.13;100465.97;4960118;28;20496;-69
2023/04/23 10:17:01;;;;;;;10.23;3.03;;;;;;;15.90;66.75;100455.50;4959321;28;20558;-68
2023/04/23 10:19:30;;;;;;;8.40;3.42;;;;;;;15.98;65.79;100450.19;4942460;28;20031;-69
2023/04/23 10:22:00;;;;;;;6.75;3.22;;;;;;;16.05;66.42;100449.28;4959103;28;20185;-68
2023/04/23 10:24:29;;;;;;;7.88;3.10;;;;;;;16.15;67.36;100450.09;4955132;28;20101;-68
2023/04/23 10:26:57;;;;;;;6.60;2.92;;;;;;;16.28;66.40;100449.16;4956739;28;20045;-68
2023/04/23 10:29:27;;;;;;;13.40;2.97;;;;;;;16.39;66.51;100446.44;4941707;28;20050;-68
2023/04/23 10:31:54;;;;;;;10.80;3.13;;;;;;;16.47;66.42;100441.13;4958710;28;20038;-69
2023/04/23 10:34:20;;;;;;;9.43;3.10;;;;;;;16.47;65.04;100436.75;4940870;28;20035;-67
2023/04/23 10:36:45;;;;;;;8.90;2.92;;;;;;;16.45;65.26;100432.38;4956588;28;20046;-66
2023/04/23 10:39:13;;;;;;;7.75;2.90;;;;;;;16.39;64.37;100438.53;4958626;28;20035;-67
2023/04/23 10:41:41;;;;;;;8.52;3.15;;;;;;;16.29;64.67;100436.88;4958223;28;20035;-67
2023/04/23 10:44:11;;;;;;;8.35;3.13;;;;;;;16.17;66.71;100436.03;4957371;28;20510;-67
2023/04/23 10:46:36;;;;;;;8.93;3.10;;;;;;;16.17;68.67;100427.31;4958365;28;20054;-66
2023/04/23 10:49:22;;;;;;;7.13;3.63;;;;;;;16.21;67.81;100438.69;4985948;23;20053;-91
2023/04/23 10:51:48;;;;;;;6.80;3.65;;;;;;;16.11;65.30;100429.97;4987817;28;20030;-91
2023/04/23 10:54:14;;;;;;;8.25;3.65;;;;;;;16.00;64.99;100419.50;4966197;28;20034;-95
2023/04/23 10:56:41;;;;;;;7.43;3.70;;;;;;;15.97;66.63;100414.28;4952035;28;20476;-95
2023/04/23 10:59:19;;;;;;;6.93;3.47;;;;;;;16.06;66.92;100403.72;4975546;28;20023;-96
2023/04/23 11:01:51;;;;;;;8.73;3.72;;;;;;;16.14;66.93;100404.53;4955567;28;20038;-95
2023/04/23 11:04:24;;;;;;;7.78;3.42;;;;;;;16.21;65.83;100401.88;4954848;28;20023;-96
2023/04/23 11:07:09;;;;;;;9.70;3.35;;;;;;;16.27;66.47;100404.47;4958016;28;20510;-96
2023/04/23 11:10:07;;;;;;;10.20;3.28;;;;;;;16.25;66.18;100396.59;4958084;28;20141;-96
2023/04/23 11:12:32;;;;;;;8.30;2.78;;;;;;;16.30;65.77;100397.41;4956716;28;20086;-96
2023/04/23 11:15:08;;;;;;;7.45;3.10;;;;;;;16.27;64.52;100386.06;4954292;28;20027;-96
2023/04/23 11:17:33;;;;;;;6.57;2.88;;;;;;;16.18;64.42;100389.63;4994988;23;20056;-67
2023/04/23 11:20:19;;;;;;;6.63;2.37;;;;;;;16.08;64.35;100391.44;4995160;28;20447;-67